Time;durP1;ratioP1;P1;durP2;ratioP2;P2;SDS_P1;SDS_P2;PMS_P1;PMS_P2;Temp;Humidity;BMP_temperature;BMP_pressure;BME280_temperature;BME280_humidity;BME280_pressure;Samples;Min_cycle;Max_cycle;Signal;HPM_P1;HPM_P2
2022/09/16 07:23:04;;;;;;;;;;;;;;;6.73;100.00;99146.91;6289742;22;19973;-84
2022/09/16 07:25:30;;;;;;;;;;;;;;;6.73;100.00;99140.78;6308979;22;19918;-84
2022/09/16 07:27:55;;;;;;;;;;;;;;;6.73;100.00;99149.56;6308571;22;19911;-84
2022/09/16 07:30:20;;;;;;;;;;;;;;;6.71;100.00;99150.50;6306954;22;19914;-87
2022/09/16 07:32:46;;;;;;;;;;;;;;;6.71;100.00;99159.25;6306709;22;19930;-86
2022/09/16 07:35:11;;;;;;;;;;;;;;;6.67;100.00;99155.03;6307376;22;19915;-86
2022/09/16 09:00:12;;;;;;;;;;;;;;;6.72;100.00;99203.13;5109666;27;19950;-85
2022/09/16 09:02:46;;;;;;;;;;;;;;;7.21;100.00;99199.56;5108273;28;20038;-84
2022/09/16 09:05:30;;;;;;;;;;;;;;;6.96;100.00;99195.22;5116560;27;19943;-84
2022/09/16 09:07:55;;;;;;;;;;;;;;;6.90;100.00;99204.19;5107867;28;20375;-84
2022/09/16 09:10:27;;;;;;;;;;;;;;;6.85;100.00;99208.78;5107012;28;19927;-84
2022/09/16 09:12:52;;;;;;;;;;;;;;;6.81;100.00;99201.06;5108297;28;19920;-84
2022/09/16 09:15:17;;;;;;;;;;;;;;;6.77;100.00;99191.56;5108337;28;19916;-84
2022/09/16 09:17:45;;;;;;;;;;;;;;;6.84;100.00;99199.16;5106880;28;19920;-84
2022/09/16 09:20:29;;;;;;;;;;;;;;;6.85;100.00;99194.78;5104018;28;19927;-85
2022/09/16 09:23:04;;;;;;;;;;;;;;;6.86;100.00;99192.09;5106885;28;20394;-88
2022/09/16 09:25:29;;;;;;;;;;;;;;;6.93;100.00;99187.44;5108226;28;20416;-84
2022/09/16 09:27:57;;;;;;;;;;;;;;;6.91;100.00;99176.97;5107996;28;19916;-85
2022/09/16 09:30:26;;;;;;;;;;;;;;;6.94;100.00;99183.03;5107942;28;19923;-85
2022/09/16 09:32:58;;;;;;;;;;;;;;;6.89;100.00;99178.81;5094698;28;20003;-84
2022/09/16 09:35:31;;;;;;;;;;;;;;;6.87;100.00;99198.19;5106654;28;19920;-87
2022/09/16 09:38:12;;;;;;;;;;;;;;;6.91;100.00;99191.91;5098815;28;19931;-85
2022/09/16 09:40:57;;;;;;;;;;;;;;;6.86;100.00;99189.44;5108408;28;20294;-85
2022/09/16 09:43:43;;;;;;;;;;;;;;;6.95;100.00;99201.41;5107606;28;19916;-84
2022/09/16 09:46:31;;;;;;;;;;;;;;;6.95;100.00;99190.03;5122827;27;20325;-85
2022/09/16 09:49:00;;;;;;;;;;;;;;;6.90;100.00;99184.91;5105403;28;19924;-84
2022/09/16 09:51:29;;;;;;;;;;;;;;;6.82;100.00;99190.47;5105996;28;20580;-84
2022/09/16 09:53:59;;;;;;;;;;;;;;;6.92;100.00;99188.34;5104083;28;19924;-84
2022/09/16 09:56:30;;;;;;;;;;;;;;;6.83;100.00;99191.31;5097692;28;19969;-84
2022/09/16 09:59:13;;;;;;;;;;;;;;;6.94;100.00;99194.44;5107172;28;19924;-85
2022/09/16 10:01:39;;;;;;;;;;;;;;;6.99;100.00;99195.13;5106756;28;20853;-84
2022/09/16 10:04:11;;;;;;;;;;;;;;;6.86;100.00;99189.44;5103538;28;19920;-84
2022/09/16 10:06:36;;;;;;;;;;;;;;;6.84;100.00;99185.16;5107099;28;19978;-84
2022/09/16 10:09:02;;;;;;;;;;;;;;;6.84;100.00;99185.16;5104645;28;19963;-84
2022/09/16 10:11:30;;;;;;;;;;;;;;;6.95;100.00;99182.97;5093209;28;19920;-84
2022/09/16 10:13:59;;;;;;;;;;;;;;;6.90;100.00;99179.66;5090726;28;19920;-84
2022/09/16 10:16:29;;;;;;;;;;;;;;;6.93;100.00;99187.44;5093391;28;19969;-85
2022/09/16 10:18:54;;;;;;;;;;;;;;;6.96;100.00;99184.69;5094710;28;19931;-84
2022/09/16 10:21:20;;;;;;;;;;;;;;;6.87;100.00;99185.03;5091800;28;19916;-85
2022/09/16 10:23:52;;;;;;;;;;;;;;;6.84;100.00;99193.03;5092047;28;20290;-84
2022/09/16 10:26:23;;;;;;;;;;;;;;;6.94;100.00;99186.53;5092577;28;20430;-84
2022/09/16 10:28:55;;;;;;;;;;;;;;;6.97;100.00;99186.38;5093149;28;19927;-84
2022/09/16 10:31:21;;;;;;;;;;;;;;;6.89;100.00;99191.97;5084527;28;19999;-84
2022/09/16 10:33:47;;;;;;;;;;;;;;;6.86;100.00;99189.44;5084566;28;19926;-85
2022/09/16 10:36:23;;;;;;;;;;;;;;;6.88;100.00;99179.72;5091792;28;20351;-84
2022/09/16 10:38:56;;;;;;;;;;;;;;;6.85;100.00;99182.44;5084126;28;20256;-85
2022/09/16 10:41:26;;;;;;;;;;;;;;;6.80;100.00;99181.78;5084647;28;20481;-84
2022/09/16 10:43:54;;;;;;;;;;;;;;;6.80;100.00;99184.41;5083807;28;20446;-84
2022/09/16 10:46:19;;;;;;;;;;;;;;;6.84;100.00;99179.88;5094410;28;19916;-84
2022/09/16 10:48:48;;;;;;;;;;;;;;;6.81;100.00;99177.34;5094027;28;20282;-84
2022/09/16 10:51:24;;;;;;;;;;;;;;;6.77;100.00;99183.66;5081567;28;20299;-84
2022/09/16 10:53:57;;;;;;;;;;;;;;;6.80;100.00;99179.13;5090923;28;19926;-84
2022/09/16 10:56:23;;;;;;;;;;;;;;;6.81;100.00;99180.00;5080047;28;20330;-84
2022/09/16 10:58:59;;;;;;;;;;;;;;;6.76;100.00;99185.41;5087907;28;19920;-84
2022/09/16 11:01:45;;;;;;;;;;;;;;;6.71;100.00;99187.38;5090470;28;19925;-84
2022/09/16 11:04:13;;;;;;;;;;;;;;;6.69;100.00;99184.78;5087093;28;19959;-84
2022/09/16 11:06:51;;;;;;;;;;;;;;;6.76;100.00;99187.22;5083806;28;19939;-85
2022/09/16 11:09:31;;;;;;;;;;;;;;;6.78;100.00;99183.63;5091182;28;19943;-85
2022/09/16 11:12:23;;;;;;;;;;;;;;;6.75;100.00;99185.47;5091192;28;19931;-84
2022/09/16 11:15:07;;;;;;;;;;;;;;;6.77;100.00;99179.25;5074968;28;19931;-85
2022/09/16 11:17:50;;;;;;;;;;;;;;;6.89;100.00;99183.19;5092692;28;19928;-85
2022/09/16 11:20:34;;;;;;;;;;;;;;;6.80;100.00;99173.88;5090582;28;20366;-85
2022/09/16 11:23:17;;;;;;;;;;;;;;;6.73;100.00;99178.50;5083228;28;19920;-85
2022/09/16 11:25:49;;;;;;;;;;;;;;;6.79;100.00;99171.28;5092616;28;19973;-85
2022/09/16 11:28:26;;;;;;;;;;;;;;;6.86;100.00;99162.22;5083316;28;19939;-86
2022/09/16 11:31:05;;;;;;;;;;;;;;;6.76;100.00;99172.25;5089480;28;19928;-90
2022/09/16 11:33:31;;;;;;;;;;;;;;;6.81;100.00;99177.34;5082311;28;19956;-87
2022/09/16 11:36:14;;;;;;;;;;;;;;;6.81;100.00;99180.00;5088408;28;20411;-85
2022/09/16 11:38:51;;;;;;;;;;;;;;;6.84;100.00;99170.19;5083839;28;19948;-86
2022/09/16 11:41:26;;;;;;;;;;;;;;;6.76;100.00;99176.66;5089397;28;19928;-89
2022/09/16 11:44:14;;;;;;;;;;;;;;;6.80;100.00;99178.28;5091264;28;19920;-86
2022/09/16 11:46:39;;;;;;;;;;;;;;;6.72;100.00;99184.69;5088974;28;19920;-86
2022/09/16 11:49:24;;;;;;;;;;;;;;;6.70;100.00;99180.38;5089514;28;20289;-86
2022/09/16 11:51:58;;;;;;;;;;;;;;;6.68;100.00;99185.69;5088844;28;19916;-88
2022/09/16 11:54:48;;;;;;;;;;;;;;;6.75;100.00;99185.47;5091230;28;19917;-85
2022/09/16 11:57:18;;;;;;;;;;;;;;;6.73;100.00;99189.03;5122251;27;20367;-85
2022/09/16 11:59:43;;;;;;;;;;;;;;;6.71;100.00;99187.38;5088939;28;20048;-86
2022/09/16 12:02:08;;;;;;;;;;;;;;;6.72;100.00;99191.72;5087006;28;19924;-87
2022/09/16 12:04:40;;;;;;;;;;;;;;;6.77;100.00;99196.84;5091371;28;20347;-88
2022/09/16 12:07:16;;;;;;;;;;;;;;;6.83;100.00;99191.31;5073739;28;19927;-85
2022/09/16 12:09:51;;;;;;;;;;;;;;;6.68;100.00;99183.06;5082833;28;19920;-86
2022/09/16 12:12:25;;;;;;;;;;;;;;;6.73;100.00;99175.00;5089192;28;19920;-86
2022/09/16 12:14:53;;;;;;;;;;;;;;;6.71;100.00;99172.41;5089620;28;19920;-86
2022/09/16 12:17:28;;;;;;;;;;;;;;;6.62;100.00;99172.78;5080708;28;19921;-87
2022/09/16 12:19:56;;;;;;;;;;;;;;;6.77;100.00;99168.72;5090560;28;19920;-84
2022/09/16 12:22:28;;;;;;;;;;;;;;;6.73;100.00;99167.97;5089683;28;19920;-86
2022/09/16 12:24:58;;;;;;;;;;;;;;;6.71;100.00;99169.78;5090757;28;19924;-86
2022/09/16 12:27:36;;;;;;;;;;;;;;;6.71;100.00;99164.53;5090994;28;19928;-85
2022/09/16 12:30:10;;;;;;;;;;;;;;;6.70;100.00;99164.56;5090115;28;20325;-88
2022/09/16 12:32:45;;;;;;;;;;;;;;;6.62;100.00;99175.41;5092098;28;19916;-88
2022/09/16 12:35:14;;;;;;;;;;;;;;;6.64;100.00;99168.31;5088511;28;19930;-86
2022/09/16 12:37:45;;;;;;;;;;;;;;;6.66;100.00;99171.75;5087105;28;19928;-86
2022/09/16 12:40:15;;;;;;;;;;;;;;;6.75;100.00;99165.28;5077678;28;19927;-85
2022/09/16 12:42:50;;;;;;;;;;;;;;;6.78;100.00;99169.56;5087077;28;19927;-88
2022/09/16 12:45:26;;;;;;;;;;;;;;;6.71;100.00;99175.06;5091369;28;19920;-87
2022/09/16 12:48:01;;;;;;;;;;;;;;;6.84;100.00;99182.50;5089887;28;19924;-87
2022/09/16 12:50:38;;;;;;;;;;;;;;;6.70;100.00;99178.63;5089456;28;19920;-85
2022/09/16 12:53:09;;;;;;;;;;;;;;;6.79;100.00;99177.41;5091483;28;20369;-86
2022/09/16 12:55:50;;;;;;;;;;;;;;;6.71;100.00;99179.47;5082043;28;20562;-85
2022/09/16 12:58:15;;;;;;;;;;;;;;;6.62;100.00;99179.81;5090737;28;19923;-85
2022/09/16 13:00:59;;;;;;;;;;;;;;;6.67;100.00;99178.72;5087139;28;19920;-84
2022/09/16 13:03:27;;;;;;;;;;;;;;;6.77;100.00;99163.44;5089150;28;19927;-85
2022/09/16 13:05:53;;;;;;;;;;;;;;;6.82;100.00;99165.91;5080586;28;19970;-85
2022/09/16 13:08:21;;;;;;;;;;;;;;;6.91;100.00;99178.75;5080896;28;19924;-85
2022/09/16 13:10:56;;;;;;;;;;;;;;;6.95;100.00;99176.84;5088929;28;20027;-88
2022/09/16 13:13:29;;;;;;;;;;;;;;;6.93;100.00;99184.81;5088282;28;19927;-84
2022/09/16 13:15:55;;;;;;;;;;;;;;;6.88;100.00;99192.03;5090138;28;19950;-85
2022/09/16 13:18:22;;;;;;;;;;;;;;;6.86;100.00;99188.56;5090452;28;20264;-85
2022/09/16 13:20:50;;;;;;;;;;;;;;;6.79;100.00;99185.31;5090585;28;20280;-84
2022/09/16 13:23:15;;;;;;;;;;;;;;;6.82;100.00;99186.97;5088875;28;19926;-84
2022/09/16 13:25:56;;;;;;;;;;;;;;;6.81;100.00;99186.13;5085982;28;19920;-85
2022/09/16 13:28:27;;;;;;;;;;;;;;;6.65;100.00;99191.09;5081271;28;20252;-86
2022/09/16 13:30:52;;;;;;;;;;;;;;;6.62;100.00;99178.06;5088203;28;20007;-84
2022/09/16 13:33:18;;;;;;;;;;;;;;;6.63;100.00;99179.75;5089550;28;20023;-85
2022/09/16 13:35:45;;;;;;;;;;;;;;;6.61;100.00;99189.47;5089835;28;19947;-85
2022/09/16 13:38:13;;;;;;;;;;;;;;;6.69;100.00;99181.31;5089201;28;19928;-86
2022/09/16 13:40:39;;;;;;;;;;;;;;;6.69;100.00;99176.91;5087243;28;19930;-84
2022/09/16 13:43:08;;;;;;;;;;;;;;;6.60;100.00;99174.59;5085736;28;19920;-86
2022/09/16 13:45:35;;;;;;;;;;;;;;;6.61;100.00;99173.69;5093187;28;19920;-87
2022/09/16 13:48:21;;;;;;;;;;;;;;;6.62;100.00;99158.75;5091706;28;20018;-85
2022/09/16 13:50:50;;;;;;;;;;;;;;;6.61;100.00;99163.16;5091957;28;19993;-85
2022/09/16 13:53:23;;;;;;;;;;;;;;;6.63;100.00;99163.09;5084365;28;19920;-84
2022/09/16 13:55:49;;;;;;;;;;;;;;;6.58;100.00;99150.09;5085171;28;19916;-85
2022/09/16 13:58:28;;;;;;;;;;;;;;;6.64;100.00;99151.66;5092010;28;20429;-86
2022/09/16 14:00:54;;;;;;;;;;;;;;;6.68;100.00;99146.22;5093938;28;19975;-86
2022/09/16 14:03:31;;;;;;;;;;;;;;;6.60;100.00;99140.38;5094377;28;19970;-85
2022/09/16 14:06:00;;;;;;;;;;;;;;;6.72;100.00;99137.28;5091818;28;19946;-86
2022/09/16 14:08:31;;;;;;;;;;;;;;;6.60;100.00;99143.00;5090796;28;19912;-85
2022/09/16 14:11:06;;;;;;;;;;;;;;;6.64;100.00;99136.72;5093720;28;19934;-85
2022/09/16 14:13:40;;;;;;;;;;;;;;;6.63;100.00;99123.63;5084192;28;19920;-85
2022/09/16 14:16:12;;;;;;;;;;;;;;;6.65;100.00;99133.19;5093742;28;19927;-87
2022/09/16 14:18:40;;;;;;;;;;;;;;;6.67;100.00;99144.50;5083959;28;19920;-86
2022/09/16 14:21:16;;;;;;;;;;;;;;;6.72;100.00;99160.13;5092205;28;20440;-87
2022/09/16 14:23:42;;;;;;;;;;;;;;;7.00;100.00;99181.00;5083726;28;19920;-85
2022/09/16 14:26:12;;;;;;;;;;;;;;;6.92;100.00;99183.06;5092156;28;19946;-85
2022/09/16 14:28:37;;;;;;;;;;;;;;;6.82;100.00;99197.50;5081131;28;20409;-86
2022/09/16 14:31:06;;;;;;;;;;;;;;;6.67;100.00;99183.13;5090684;28;20019;-90
2022/09/16 14:33:49;;;;;;;;;;;;;;;;;;;;;
2022/09/16 14:36:20;;;;;;;;;;;;;;;6.62;100.00;99178.06;5090484;28;19920;-86
2022/09/16 14:39:01;;;;;;;;;;;;;;;6.63;100.00;99171.84;5091147;28;19920;-86
2022/09/16 14:41:44;;;;;;;;;;;;;;;6.68;100.00;99172.53;5091676;28;19926;-86
2022/09/16 14:44:18;;;;;;;;;;;;;;;6.64;100.00;99160.41;5090679;28;19924;-87
2022/09/16 14:46:47;;;;;;;;;;;;;;;6.63;100.00;99156.06;5092943;28;19924;-86
2022/09/16 14:49:13;;;;;;;;;;;;;;;6.62;100.00;99148.22;5089995;28;20026;-86
2022/09/16 14:51:42;;;;;;;;;;;;;;;6.70;100.00;99157.56;5092066;28;19970;-86
2022/09/16 14:54:14;;;;;;;;;;;;;;;6.64;100.00;99168.31;5092822;28;19935;-87
2022/09/16 14:56:40;;;;;;;;;;;;;;;6.70;100.00;99178.63;5093262;28;20007;-86
2022/09/16 14:59:07;;;;;;;;;;;;;;;6.69;100.00;99176.03;5090516;28;20011;-86
2022/09/16 15:01:33;;;;;;;;;;;;;;;6.71;100.00;99185.59;5088961;28;20367;-87
2022/09/16 15:04:02;;;;;;;;;;;;;;;6.71;100.00;99188.22;5093828;28;19999;-86
2022/09/16 15:06:29;;;;;;;;;;;;;;;6.81;100.00;99201.06;5082882;28;19920;-86
2022/09/16 15:08:58;;;;;;;;;;;;;;;6.82;100.00;99198.38;5092669;28;19924;-86
2022/09/16 15:11:26;;;;;;;;;;;;;;;6.78;100.00;99203.78;5092369;28;19920;-86
2022/09/16 15:13:52;;;;;;;;;;;;;;;6.82;100.00;99208.06;5104688;28;19924;-86
2022/09/16 15:16:19;;;;;;;;;;;;;;;6.68;100.00;99214.66;5091709;28;19924;-87
2022/09/16 15:18:59;;;;;;;;;;;;;;;6.71;100.00;99205.81;5089131;28;20387;-87
2022/09/16 15:21:26;;;;;;;;;;;;;;;6.67;100.00;99217.34;5088817;28;19971;-85
2022/09/16 15:24:01;;;;;;;;;;;;;;;6.76;100.00;99221.44;5083486;28;19923;-92
2022/09/16 15:26:39;;;;;;;;;;;;;;;6.63;100.00;99210.50;5084042;28;20364;-86
2022/09/16 15:29:06;;;;;;;;;;;;;;;6.67;100.00;99212.97;5091653;28;19916;-87
2022/09/16 15:31:33;;;;;;;;;;;;;;;6.59;100.00;99217.66;5092180;28;19916;-85
2022/09/16 15:34:02;;;;;;;;;;;;;;;6.63;100.00;99215.75;5083463;28;19912;-85
2022/09/16 15:36:32;;;;;;;;;;;;;;;6.56;100.00;99207.22;5090659;28;19928;-86
2022/09/16 15:39:00;;;;;;;;;;;;;;;6.61;100.00;99202.66;5092038;28;19971;-89
2022/09/16 15:41:26;;;;;;;;;;;;;;;6.55;100.00;99201.06;5093190;28;19920;-85
2022/09/16 15:43:51;;;;;;;;;;;;;;;6.51;100.00;99202.13;5093290;28;19919;-86
2022/09/16 15:46:20;;;;;;;;;;;;;;;6.55;100.00;99195.81;5092881;28;19924;-86
2022/09/16 15:48:49;;;;;;;;;;;;;;;6.59;100.00;99195.72;5082909;28;19920;-87
2022/09/16 15:51:25;;;;;;;;;;;;;;;6.59;100.00;99201.84;5090921;28;19912;-85
2022/09/16 15:53:55;;;;;;;;;;;;;;;6.61;100.00;99201.78;5091746;28;19916;-86
2022/09/16 15:56:33;;;;;;;;;;;;;;;6.59;100.00;99196.59;5089051;28;19912;-87
2022/09/16 15:59:18;;;;;;;;;;;;;;;6.59;100.00;99201.84;5083117;28;19975;-95
2022/09/16 16:01:49;;;;;;;;;;;;;;;6.64;100.00;99207.81;5103556;28;19916;-87
2022/09/16 16:04:24;;;;;;;;;;;;;;;6.60;100.00;99210.59;5089359;28;19952;-88
2022/09/16 16:07:02;;;;;;;;;;;;;;;6.62;100.00;99216.66;5087760;28;19924;-85
2022/09/16 16:09:28;;;;;;;;;;;;;;;6.62;100.00;99208.75;5092178;28;19927;-85
2022/09/16 16:15:08;;;;;;;;;;;;;;;6.50;100.00;99218.81;5078483;28;20370;-84
2022/09/16 16:17:33;;;;;;;;;;;;;;;6.52;100.00;99216.13;5089798;28;19927;-84
2022/09/16 16:19:59;;;;;;;;;;;;;;;6.59;100.00;99229.94;5090200;28;19923;-85
2022/09/16 16:22:25;;;;;;;;;;;;;;;6.62;100.00;99224.56;5092408;28;19924;-84
2022/09/16 16:24:53;;;;;;;;;;;;;;;6.61;100.00;99231.59;5091681;28;19983;-86
2022/09/16 16:27:19;;;;;;;;;;;;;;;6.64;100.00;99236.75;5085183;28;19924;-85
2022/09/16 16:29:44;;;;;;;;;;;;;;;6.54;100.00;99237.97;5091228;28;19957;-86
2022/09/16 16:32:11;;;;;;;;;;;;;;;6.63;100.00;99242.09;5089745;28;19928;-84
2022/09/16 16:34:38;;;;;;;;;;;;;;;6.53;100.00;99250.28;5080622;28;19917;-84
2022/09/16 16:37:16;;;;;;;;;;;;;;;6.54;100.00;99251.16;5090343;28;20336;-90
2022/09/16 16:39:41;;;;;;;;;;;;;;;6.51;100.00;99245.97;5082270;28;19916;-85
2022/09/16 16:42:10;;;;;;;;;;;;;;;6.54;100.00;99251.16;5092216;28;19920;-90
2022/09/16 16:44:35;;;;;;;;;;;;;;;6.55;100.00;99259.00;5091417;28;19916;-85
2022/09/16 16:47:01;;;;;;;;;;;;;;;6.57;100.00;99260.72;5092104;28;20013;-85
2022/09/16 16:49:26;;;;;;;;;;;;;;;6.53;100.00;99260.81;5090635;28;20389;-87
2022/09/16 16:51:53;;;;;;;;;;;;;;;6.52;100.00;99253.81;5092193;28;19916;-86
2022/09/16 16:54:19;;;;;;;;;;;;;;;6.50;100.00;99260.94;5091255;28;19922;-84
2022/09/16 16:56:47;;;;;;;;;;;;;;;6.47;100.00;99252.28;5107513;28;19999;-85
2022/09/16 16:59:13;;;;;;;;;;;;;;;6.51;100.00;99256.50;5087920;28;19924;-86
2022/09/16 17:01:39;;;;;;;;;;;;;;;6.54;100.00;99256.41;5090972;28;19927;-85
2022/09/16 17:04:04;;;;;;;;;;;;;;;6.44;100.00;99257.66;5085210;28;20026;-86
2022/09/16 17:06:30;;;;;;;;;;;;;;;6.41;100.00;99255.13;5090476;28;20018;-85
2022/09/16 17:08:56;;;;;;;;;;;;;;;6.39;100.00;99249.06;5081185;28;20385;-83
2022/09/16 17:11:22;;;;;;;;;;;;;;;6.37;100.00;99254.38;5090899;28;19920;-83
2022/09/16 17:13:50;;;;;;;;;;;;;;;10.50;100.00;99241.34;5091803;28;19960;-84
2022/09/16 17:16:18;;;;;;;;;;;;;;;13.48;100.00;99229.72;5092377;28;19923;-87
2022/09/16 17:18:44;;;;;;;;;;;;;;;8.66;100.00;99242.03;5092130;28;20018;-84
2022/09/16 17:21:10;;;;;;;;;;;;;;;7.39;100.00;99251.56;5093758;28;20418;-90
2022/09/16 17:23:36;;;;;;;;;;;;;;;7.08;100.00;99263.28;5094496;28;19918;-89
2022/09/16 17:26:01;;;;;;;;;;;;;;;6.83;100.00;99267.69;5095989;28;19999;-87
2022/09/16 17:28:27;;;;;;;;;;;;;;;6.73;100.00;99268.03;5095732;28;19946;-89
2022/09/16 17:30:52;;;;;;;;;;;;;;;6.63;100.00;99268.41;5094616;28;20034;-86
2022/09/16 17:33:17;;;;;;;;;;;;;;;6.57;100.00;99265.97;5095313;28;20331;-87
2022/09/16 17:35:43;;;;;;;;;;;;;;;6.53;100.00;99275.78;5093303;28;19920;-87
2022/09/16 17:38:08;;;;;;;;;;;;;;;6.53;100.00;99265.25;5096163;28;19916;-85
2022/09/16 17:40:34;;;;;;;;;;;;;;;6.50;100.00;99265.34;5093433;28;19962;-87
2022/09/16 17:42:59;;;;;;;;;;;;;;;6.46;100.00;99263.72;5077656;28;20391;-92
2022/09/16 17:45:24;;;;;;;;;;;;;;;6.54;100.00;99272.19;5094129;28;19945;-84
2022/09/16 17:47:49;;;;;;;;;;;;;;;6.48;100.00;99269.81;5093241;28;19920;-85
2022/09/16 17:50:16;;;;;;;;;;;;;;;6.45;100.00;99267.28;5094161;28;19916;-86
2022/09/16 17:52:42;;;;;;;;;;;;;;;6.46;100.00;99271.59;5094578;28;19916;-87
2022/09/16 17:55:11;;;;;;;;;;;;;;;6.46;100.00;99275.13;5090971;28;19924;-86
2022/09/16 17:57:38;;;;;;;;;;;;;;;6.44;100.00;99276.06;5093794;28;20336;-85
2022/09/16 18:00:07;;;;;;;;;;;;;;;6.41;100.00;99274.41;5082948;28;19920;-91
2022/09/16 18:02:38;;;;;;;;;;;;;;;6.35;100.00;99278.13;5088162;28;19927;-88
2022/09/16 18:05:03;;;;;;;;;;;;;;;6.43;100.00;99284.88;5093032;28;19916;-85
2022/09/16 18:07:31;;;;;;;;;;;;;;;6.36;100.00;99281.59;5095034;28;19924;-84
2022/09/16 18:09:56;;;;;;;;;;;;;;;6.35;100.00;99285.13;5093927;28;19945;-85
2022/09/16 18:12:22;;;;;;;;;;;;;;;6.39;100.00;99289.38;5095131;28;19916;-88
2022/09/16 18:14:57;;;;;;;;;;;;;;;6.32;100.00;99299.25;5094993;28;19920;-88
2022/09/16 18:17:22;;;;;;;;;;;;;;;6.33;100.00;99293.09;5093618;28;19959;-85
2022/09/16 18:19:58;;;;;;;;;;;;;;;6.35;100.00;99293.03;5093658;28;19959;-92
2022/09/16 18:22:24;;;;;;;;;;;;;;;6.32;100.00;99294.00;5093705;28;19963;-90
2022/09/16 18:24:49;;;;;;;;;;;;;;;6.30;100.00;99293.19;5094366;28;19955;-85
2022/09/16 18:27:14;;;;;;;;;;;;;;;6.30;100.00;99295.84;5089568;28;19920;-88
2022/09/16 18:29:42;;;;;;;;;;;;;;;6.32;100.00;99294.00;5093798;28;20382;-88
2022/09/16 18:32:07;;;;;;;;;;;;;;;6.33;100.00;99295.72;5092791;28;19968;-85
2022/09/16 18:34:40;;;;;;;;;;;;;;;6.31;100.00;99291.41;5090329;28;19971;-89
2022/09/16 18:37:13;;;;;;;;;;;;;;;6.38;100.00;99297.34;5091876;28;19912;-88
2022/09/16 18:39:46;;;;;;;;;;;;;;;6.36;100.00;99294.75;5094292;28;20363;-88
2022/09/16 18:42:23;;;;;;;;;;;;;;;6.36;100.00;99300.88;5095405;28;19963;-89
2022/09/16 18:44:48;;;;;;;;;;;;;;;6.36;100.00;99300.00;5093445;28;19928;-87
2022/09/16 18:47:24;;;;;;;;;;;;;;;6.40;100.00;99298.13;5088350;28;19937;-87
2022/09/16 18:49:49;;;;;;;;;;;;;;;6.36;100.00;99305.28;5090521;28;19934;-87
2022/09/16 18:52:14;;;;;;;;;;;;;;;6.36;100.00;99303.50;5090483;28;20003;-87
2022/09/16 18:57:36;;;;;;;;;;;;;;;6.35;100.00;99309.69;5091697;28;19920;-88
2022/09/16 19:00:07;;;;;;;;;;;;;;;6.35;100.00;99309.69;5092316;28;19931;-87
2022/09/16 19:02:32;;;;;;;;;;;;;;;6.37;100.00;99309.63;5090324;28;19931;-86
2022/09/16 19:05:00;;;;;;;;;;;;;;;6.33;100.00;99314.16;5090824;28;20295;-87
2022/09/16 19:07:26;;;;;;;;;;;;;;;6.30;100.00;99311.63;5092957;28;19920;-90
2022/09/16 19:09:53;;;;;;;;;;;;;;;6.28;100.00;99312.56;5093636;28;19920;-87
2022/09/16 19:12:18;;;;;;;;;;;;;;;6.29;100.00;99315.16;5087022;28;19920;-83
2022/09/16 19:14:54;;;;;;;;;;;;;;;;;;;;;
2022/09/16 19:17:20;;;;;;;;;;;;;;;6.29;100.00;99316.94;5087627;28;19926;-86
2022/09/16 19:19:46;;;;;;;;;;;;;;;6.25;100.00;99324.03;5089307;28;20290;-86
2022/09/16 19:22:12;;;;;;;;;;;;;;;6.29;100.00;99323.03;5092422;28;19924;-85
2022/09/16 19:24:37;;;;;;;;;;;;;;;6.27;100.00;99319.63;5090046;28;19930;-84
2022/09/16 19:27:02;;;;;;;;;;;;;;;6.29;100.00;99323.03;5088639;28;20271;-84
2022/09/16 19:29:35;;;;;;;;;;;;;;;6.30;100.00;99330.03;5087725;28;19946;-84
2022/09/16 19:32:00;;;;;;;;;;;;;;;6.33;100.00;99324.69;5089354;28;19926;-88
2022/09/16 19:34:51;;;;;;;;;;;;;;;6.34;100.00;99322.91;5091027;28;20019;-90
2022/09/16 19:37:17;;;;;;;;;;;;;;;6.31;100.00;99318.59;5090368;28;20379;-85
2022/09/16 19:39:42;;;;;;;;;;;;;;;6.30;100.00;99332.66;5089584;28;19977;-86
2022/09/16 19:42:07;;;;;;;;;;;;;;;6.30;100.00;99327.41;5090723;28;20374;-85
2022/09/16 19:44:32;;;;;;;;;;;;;;;6.27;100.00;99338.03;5088883;28;20413;-90
2022/09/16 19:46:58;;;;;;;;;;;;;;;6.32;100.00;99332.63;5089621;28;19973;-87
2022/09/16 19:49:23;;;;;;;;;;;;;;;6.28;100.00;99334.47;5084579;28;20469;-86
2022/09/16 19:51:49;;;;;;;;;;;;;;;6.34;100.00;99328.16;5091400;28;20490;-84
2022/09/16 19:54:15;;;;;;;;;;;;;;;6.40;100.00;99327.97;5090899;28;19920;-86
2022/09/16 19:56:41;;;;;;;;;;;;;;;6.30;100.00;99332.66;5091656;28;20018;-86
2022/09/16 19:59:06;;;;;;;;;;;;;;;6.30;100.00;99337.94;5091858;28;19924;-84
2022/09/16 20:01:32;;;;;;;;;;;;;;;6.28;100.00;99339.72;5090144;28;20423;-92
2022/09/16 20:03:58;;;;;;;;;;;;;;;6.35;100.00;99346.53;5090845;28;20007;-87
2022/09/16 20:06:25;;;;;;;;;;;;;;;6.35;100.00;99351.78;5091279;28;20010;-84
2022/09/16 20:08:52;;;;;;;;;;;;;;;6.34;100.00;99344.78;5088720;28;19927;-87
2022/09/16 20:11:18;;;;;;;;;;;;;;;6.29;100.00;99343.25;5085544;28;19928;-85
2022/09/16 20:14:00;;;;;;;;;;;;;;;6.28;100.00;99349.41;5080946;28;19931;-90
2022/09/16 20:16:30;;;;;;;;;;;;;;;6.35;100.00;99353.53;5089802;28;19968;-88
2022/09/16 20:18:55;;;;;;;;;;;;;;;6.30;100.00;99352.84;5090880;28;19995;-86
2022/09/16 20:21:22;;;;;;;;;;;;;;;6.26;100.00;99354.72;5091520;28;19916;-86
2022/09/16 20:24:05;;;;;;;;;;;;;;;6.20;100.00;99357.53;5086375;28;20015;-88
2022/09/16 20:26:30;;;;;;;;;;;;;;;6.25;100.00;99360.88;5081294;28;19920;-87
2022/09/16 20:28:57;;;;;;;;;;;;;;;6.23;100.00;99357.44;5092391;28;19920;-87
2022/09/16 20:31:24;;;;;;;;;;;;;;;6.21;100.00;99358.38;5081456;28;19977;-86
2022/09/16 20:33:50;;;;;;;;;;;;;;;6.25;100.00;99358.25;5089999;28;19924;-86
2022/09/16 20:36:23;;;;;;;;;;;;;;;6.16;100.00;99353.31;5088509;28;19931;-90
2022/09/16 20:38:48;;;;;;;;;;;;;;;6.30;100.00;99358.97;5088886;28;20290;-91
2022/09/16 20:41:18;;;;;;;;;;;;;;;6.21;100.00;99361.91;5090704;28;19920;-87
2022/09/16 20:43:43;;;;;;;;;;;;;;;6.22;100.00;99370.66;5088439;28;19920;-88
2022/09/16 20:46:29;;;;;;;;;;;;;;;6.26;100.00;99367.03;5091558;28;20772;-84
2022/09/16 20:48:55;;;;;;;;;;;;;;;6.23;100.00;99360.06;5083855;28;20025;-84
2022/09/16 20:51:23;;;;;;;;;;;;;;;6.23;100.00;99362.72;5089255;28;19920;-88
2022/09/16 20:53:53;;;;;;;;;;;;;;;6.28;100.00;99359.94;5089540;28;20010;-86
2022/09/16 20:56:18;;;;;;;;;;;;;;;6.25;100.00;99365.28;5081274;28;19928;-86
2022/09/16 20:58:43;;;;;;;;;;;;;;;6.19;100.00;99366.38;5089966;28;19927;-88
2022/09/16 21:01:16;;;;;;;;;;;;;;;6.18;100.00;99359.38;5088140;28;20342;-84
2022/09/16 21:03:42;;;;;;;;;;;;;;;6.17;100.00;99360.25;5081329;28;20318;-86
2022/09/16 21:06:08;;;;;;;;;;;;;;;6.24;100.00;99361.81;5090891;28;19920;-87
2022/09/16 21:08:39;;;;;;;;;;;;;;;6.28;100.00;99370.44;5080894;28;19987;-90
2022/09/16 21:11:04;;;;;;;;;;;;;;;6.24;100.00;99380.22;5086799;28;20389;-86
2022/09/16 21:13:30;;;;;;;;;;;;;;;6.18;100.00;99372.53;5088680;28;19924;-84
2022/09/16 21:15:58;;;;;;;;;;;;;;;6.16;100.00;99372.56;5089073;28;20626;-90
2022/09/16 21:18:25;;;;;;;;;;;;;;;6.17;100.00;99378.69;5092075;28;19916;-85
2022/09/16 21:21:01;;;;;;;;;;;;;;;6.10;100.00;99375.38;5087791;28;19932;-87
2022/09/16 21:23:26;;;;;;;;;;;;;;;6.09;100.00;99380.69;5094991;28;19952;-88
2022/09/16 21:25:52;;;;;;;;;;;;;;;6.14;100.00;99384.03;5091818;28;19955;-81
2022/09/16 21:28:17;;;;;;;;;;;;;;;6.18;100.00;99388.31;5088232;28;19928;-85
2022/09/16 21:30:44;;;;;;;;;;;;;;;6.11;100.00;99394.66;5090588;28;19947;-87
2022/09/16 21:33:11;;;;;;;;;;;;;;;6.05;100.00;99389.56;5090611;28;19974;-88
2022/09/16 21:35:36;;;;;;;;;;;;;;;6.12;100.00;99393.75;5089505;28;19935;-87
2022/09/16 21:38:02;;;;;;;;;;;;;;;6.12;100.00;99396.38;5089526;28;19920;-86
2022/09/16 21:40:27;;;;;;;;;;;;;;;6.12;100.00;99406.91;5088928;28;19924;-84
2022/09/16 21:42:52;;;;;;;;;;;;;;;6.06;100.00;99407.09;5088667;28;19928;-86
2022/09/16 21:45:18;;;;;;;;;;;;;;;6.13;100.00;99403.38;5089732;28;19924;-86
2022/09/16 21:47:43;;;;;;;;;;;;;;;6.06;100.00;99401.81;5088662;28;19927;-89
2022/09/16 21:50:08;;;;;;;;;;;;;;;6.00;100.00;99398.47;5087210;28;19920;-87
2022/09/16 21:52:34;;;;;;;;;;;;;;;6.11;100.00;99397.28;5089386;28;19924;-87